Time;durP1;ratioP1;P1;durP2;ratioP2;P2;SDS_P1;SDS_P2;PMS_P1;PMS_P2;Temp;Humidity;BMP_temperature;BMP_pressure;BME280_temperature;BME280_humidity;BME280_pressure;Samples;Min_cycle;Max_cycle;Signal;HPM_P1;HPM_P2
2022/02/26 00:01:20;;;;;;;15.18;5.70;;;;;;;8.36;42.64;99946.34;5092371;28;20489;-51
2022/02/26 00:03:46;;;;;;;15.40;3.28;;;;;;;8.48;42.51;99949.56;5074023;28;20028;-52
2022/02/26 00:06:12;;;;;;;14.50;4.05;;;;;;;8.60;41.86;99948.31;5092196;28;20493;-52
2022/02/26 00:08:37;;;;;;;10.68;3.58;;;;;;;8.55;42.50;99949.75;5092492;28;20032;-52
2022/02/26 00:11:04;;;;;;;9.07;2.95;;;;;;;8.47;42.34;99955.78;5092245;28;20069;-52
2022/02/26 00:13:30;;;;;;;8.60;3.05;;;;;;;8.27;41.98;99962.16;5057434;28;20032;-52
2022/02/26 00:15:56;;;;;;;7.03;2.58;;;;;;;8.19;42.48;99960.31;5092367;28;20036;-51
2022/02/26 00:18:21;;;;;;;14.38;3.60;;;;;;;8.10;42.80;99951.59;5091542;28;20034;-51
2022/02/26 00:20:47;;;;;;;8.88;3.72;;;;;;;7.83;43.34;99952.53;5092042;28;20024;-51
2022/02/26 00:23:13;;;;;;;8.48;2.97;;;;;;;7.64;43.31;99943.06;5092015;28;20035;-52
2022/02/26 00:25:39;;;;;;;8.07;3.15;;;;;;;7.52;44.63;99949.47;5092000;28;20099;-52
2022/02/26 00:28:05;;;;;;;9.93;3.20;;;;;;;7.55;44.38;99936.94;5073965;28;20150;-52
2022/02/26 00:30:30;;;;;;;36.25;19.92;;;;;;;7.44;44.48;99947.63;5073690;28;20499;-52
2022/02/26 00:32:56;;;;;;;23.73;7.30;;;;;;;7.34;44.28;99952.09;5073573;28;20032;-54
2022/02/26 00:35:22;;;;;;;28.20;14.98;;;;;;;7.22;45.13;99959.31;5091937;28;20098;-52
2022/02/26 00:37:47;;;;;;;14.85;6.32;;;;;;;7.14;44.74;99962.69;5091932;28;20028;-52
2022/02/26 00:40:13;;;;;;;9.55;3.85;;;;;;;7.22;45.39;99964.53;5091870;28;20023;-52
2022/02/26 00:42:39;;;;;;;16.67;5.13;;;;;;;7.25;45.66;99964.25;5091800;28;20024;-51
2022/02/26 00:45:06;;;;;;;13.18;4.20;;;;;;;7.26;45.16;99960.66;5073671;28;20032;-51
2022/02/26 00:47:33;;;;;;;12.30;4.22;;;;;;;7.31;45.23;99968.06;5073528;28;20051;-52
2022/02/26 00:49:59;;;;;;;10.20;4.38;;;;;;;7.30;45.35;99966.41;5091831;28;20038;-52
2022/02/26 00:52:31;;;;;;;15.20;5.68;;;;;;;7.20;45.74;99956.03;5091982;28;20032;-51
2022/02/26 00:55:02;;;;;;;11.43;3.70;;;;;;;7.24;45.29;99952.16;5091796;28;20082;-51
2022/02/26 00:57:28;;;;;;;10.57;3.78;;;;;;;7.30;45.66;99959.38;5091730;28;20024;-52
2022/02/26 00:59:54;;;;;;;14.15;4.22;;;;;;;7.02;45.65;99952.56;5091935;28;20016;-52
2022/02/26 01:02:20;;;;;;;15.38;4.90;;;;;;;6.74;45.75;99945.56;5091616;28;20099;-52
2022/02/26 01:04:48;;;;;;;11.55;4.20;;;;;;;6.70;46.38;99949.44;5091644;28;20078;-51
2022/02/26 01:07:14;;;;;;;15.43;4.53;;;;;;;6.70;46.76;99948.59;5091492;28;20056;-52
2022/02/26 01:09:40;;;;;;;13.75;4.20;;;;;;;6.54;47.23;99944.81;5091564;28;20016;-51
2022/02/26 01:12:08;;;;;;;16.20;3.97;;;;;;;6.58;46.97;99942.75;5073355;28;20111;-52
2022/02/26 01:14:35;;;;;;;14.10;3.50;;;;;;;6.66;47.50;99935.03;5091506;28;20077;-52
2022/02/26 01:17:03;;;;;;;26.00;10.70;;;;;;;6.75;46.96;99936.75;5091479;28;20030;-51
2022/02/26 01:19:29;;;;;;;9.50;4.15;;;;;;;6.89;46.39;99940.69;5073399;28;20048;-52
2022/02/26 01:21:54;;;;;;;11.48;3.03;;;;;;;7.01;46.56;99941.31;5091444;28;20052;-51
2022/02/26 01:24:20;;;;;;;10.35;3.25;;;;;;;6.99;46.23;99941.44;5091425;28;20103;-51
2022/02/26 01:26:46;;;;;;;21.52;3.20;;;;;;;7.07;47.01;99940.72;5091299;28;20036;-52
2022/02/26 01:29:12;;;;;;;11.50;3.55;;;;;;;7.11;46.30;99933.41;5093265;28;20049;-52
2022/02/26 01:31:39;;;;;;;16.60;4.40;;;;;;;7.05;46.06;99932.22;5095168;28;20020;-51
2022/02/26 01:34:05;;;;;;;14.55;4.53;;;;;;;6.85;46.48;99935.91;5094890;28;20080;-51
2022/02/26 01:36:32;;;;;;;8.82;3.47;;;;;;;6.53;46.79;99930.13;5076860;28;20070;-51
2022/02/26 01:38:59;;;;;;;10.02;3.58;;;;;;;6.25;47.18;99931.06;5076859;28;20024;-52
2022/02/26 01:41:28;;;;;;;14.68;4.45;;;;;;;5.99;48.11;99916.81;5095011;28;20016;-51
2022/02/26 01:43:58;;;;;;;13.73;3.78;;;;;;;5.69;48.71;99924.81;5094842;28;20024;-51
2022/02/26 01:46:24;;;;;;;10.60;3.17;;;;;;;5.79;48.89;99923.84;5094851;28;20024;-51
2022/02/26 01:48:50;;;;;;;16.02;3.63;;;;;;;5.84;48.68;99922.59;5076641;28;20050;-51
2022/02/26 01:51:17;;;;;;;7.70;3.15;;;;;;;5.93;48.46;99924.38;5094855;28;20498;-51
2022/02/26 01:53:42;;;;;;;10.63;3.70;;;;;;;6.05;48.48;99915.44;5076571;28;20447;-52
2022/02/26 01:56:10;;;;;;;15.77;3.33;;;;;;;6.19;48.73;99908.97;5076528;28;20024;-52
2022/02/26 01:58:37;;;;;;;18.42;3.22;;;;;;;6.35;48.33;99913.59;5094704;28;20020;-52
2022/02/26 02:01:04;;;;;;;25.40;3.88;;;;;;;6.56;48.03;99906.38;5094697;28;20052;-51
2022/02/26 02:03:30;;;;;;;19.42;4.05;;;;;;;6.71;48.30;99903.28;5076430;28;20028;-52
2022/02/26 02:05:58;;;;;;;15.23;3.35;;;;;;;6.65;47.06;99898.66;5094514;28;20027;-51
2022/02/26 02:08:24;;;;;;;7.90;3.08;;;;;;;6.40;48.30;99896.56;5076180;28;20043;-51
2022/02/26 02:10:51;;;;;;;15.30;4.47;;;;;;;6.15;48.68;99897.19;5094446;28;20028;-52
2022/02/26 02:13:19;;;;;;;8.20;3.22;;;;;;;6.26;49.03;99893.56;5094435;28;20024;-51
2022/02/26 02:15:45;;;;;;;13.48;3.30;;;;;;;6.56;48.71;99888.13;5094433;28;20436;-51
2022/02/26 02:18:13;;;;;;;13.57;3.50;;;;;;;6.79;48.43;99883.31;5094367;28;20024;-51
2022/02/26 02:20:40;;;;;;;11.38;3.25;;;;;;;7.04;48.21;99878.34;5076393;28;20119;-51
2022/02/26 02:23:06;;;;;;;10.43;2.70;;;;;;;7.22;48.04;99875.75;5076125;28;20119;-51
2022/02/26 02:25:34;;;;;;;12.68;3.45;;;;;;;7.32;48.22;99870.47;5094215;28;20095;-51
2022/02/26 02:28:01;;;;;;;9.40;3.33;;;;;;;7.42;47.69;99867.78;5075858;28;20448;-52
2022/02/26 02:30:28;;;;;;;6.82;2.70;;;;;;;7.49;47.34;99871.44;5075864;28;20539;-52
2022/02/26 02:32:56;;;;;;;7.00;2.80;;;;;;;7.44;46.98;99871.88;5093790;28;20421;-51
2022/02/26 02:35:29;;;;;;;17.38;4.40;;;;;;;7.10;47.22;99869.13;5055745;28;20115;-52
2022/02/26 02:37:56;;;;;;;11.50;4.40;;;;;;;6.88;48.11;99866.00;5055771;28;20115;-51
2022/02/26 02:40:23;;;;;;;15.00;4.07;;;;;;;6.88;47.92;99862.53;5073151;28;20020;-51
2022/02/26 02:42:51;;;;;;;11.73;4.20;;;;;;;6.82;48.64;99858.72;5055707;28;20025;-51
2022/02/26 02:45:18;;;;;;;15.13;4.07;;;;;;;6.74;48.53;99862.09;5055564;28;20032;-52
2022/02/26 02:47:47;;;;;;;12.85;3.97;;;;;;;6.52;49.11;99860.69;5073478;28;20099;-51
2022/02/26 02:50:13;;;;;;;17.65;4.53;;;;;;;6.54;49.85;99843.13;5055451;28;20120;-52
2022/02/26 02:52:38;;;;;;;9.35;3.70;;;;;;;6.57;49.79;99858.44;5055504;28;20119;-52
2022/02/26 02:55:06;;;;;;;15.40;5.57;;;;;;;6.66;49.66;99850.72;5055387;28;20028;-51
2022/02/26 02:57:31;;;;;;;14.13;4.15;;;;;;;6.75;49.34;99845.44;5073334;28;20021;-52
2022/02/26 02:59:57;;;;;;;18.33;5.43;;;;;;;6.84;49.27;99840.31;5073360;28;20039;-52
2022/02/26 03:02:23;;;;;;;12.25;4.32;;;;;;;6.84;49.29;99840.31;5073247;28;20052;-51
2022/02/26 03:04:49;;;;;;;13.50;4.90;;;;;;;6.90;49.41;99832.75;5038607;28;20067;-51
2022/02/26 03:07:16;;;;;;;11.70;4.60;;;;;;;6.87;49.56;99840.84;5073050;28;20454;-52
2022/02/26 03:09:43;;;;;;;17.83;4.80;;;;;;;6.82;48.99;99832.63;5073127;28;20031;-52
2022/02/26 03:12:09;;;;;;;15.07;5.45;;;;;;;6.76;48.80;99823.63;5073020;28;20020;-51
2022/02/26 03:14:35;;;;;;;14.60;4.88;;;;;;;6.65;49.66;99836.06;5072912;28;20025;-52
2022/02/26 03:17:00;;;;;;;11.77;4.45;;;;;;;6.51;50.17;99834.75;5072932;28;20485;-51
2022/02/26 03:19:26;;;;;;;12.88;5.05;;;;;;;6.37;50.54;99833.44;5054896;28;20028;-52
2022/02/26 03:21:52;;;;;;;14.95;4.75;;;;;;;6.33;50.61;99826.88;5072828;28;20021;-52
2022/02/26 03:24:17;;;;;;;11.18;4.32;;;;;;;6.30;50.89;99827.16;5054871;28;20074;-52
2022/02/26 03:26:43;;;;;;;12.00;4.35;;;;;;;6.42;50.45;99825.19;5072624;28;20066;-52
2022/02/26 03:29:10;;;;;;;11.20;4.20;;;;;;;6.50;51.05;99820.06;5072695;28;20025;-51
2022/02/26 03:31:38;;;;;;;9.25;3.58;;;;;;;6.48;50.82;99820.22;5072600;28;20013;-52
2022/02/26 03:34:04;;;;;;;16.08;4.60;;;;;;;6.48;50.69;99815.00;5082533;28;20044;-52
2022/02/26 03:36:34;;;;;;;9.68;3.80;;;;;;;6.62;51.44;99816.31;5074572;28;20031;-52
2022/02/26 03:39:01;;;;;;;10.65;4.35;;;;;;;6.70;50.85;99812.94;5092793;28;20370;-52
2022/02/26 03:41:27;;;;;;;15.75;3.95;;;;;;;6.82;50.52;99809.13;5074502;28;20062;-51
2022/02/26 03:43:52;;;;;;;10.57;3.65;;;;;;;6.77;50.66;99804.38;5092716;28;20016;-51
2022/02/26 03:46:18;;;;;;;10.20;4.10;;;;;;;6.86;50.99;99810.50;5092532;28;20394;-51
2022/02/26 03:48:45;;;;;;;12.45;3.97;;;;;;;6.99;50.63;99810.94;5092605;28;20043;-51
2022/02/26 03:51:12;;;;;;;20.35;3.78;;;;;;;7.11;50.57;99819.38;5092547;28;20020;-51
2022/02/26 03:53:38;;;;;;;8.48;3.03;;;;;;;7.04;50.15;99809.69;5091718;28;20024;-51
2022/02/26 03:56:04;;;;;;;9.75;3.95;;;;;;;6.89;51.13;99817.22;5074265;28;20093;-52
2022/02/26 03:58:30;;;;;;;14.68;4.20;;;;;;;6.69;51.18;99824.34;5074266;28;20027;-51
2022/02/26 04:00:56;;;;;;;10.77;3.88;;;;;;;6.57;51.35;99819.34;5092383;28;20508;-52
2022/02/26 04:03:21;;;;;;;11.77;4.70;;;;;;;6.42;51.85;99823.41;5074159;28;20027;-52
2022/02/26 04:05:47;;;;;;;15.55;3.65;;;;;;;6.43;52.15;99819.00;5092375;28;20477;-52
2022/02/26 04:08:13;;;;;;;11.88;4.07;;;;;;;6.58;52.35;99821.00;5074062;28;20020;-51
2022/02/26 04:10:38;;;;;;;10.07;4.25;;;;;;;6.51;51.97;99822.53;5092359;28;20103;-51
2022/02/26 04:13:04;;;;;;;9.93;3.50;;;;;;;6.52;51.98;99820.72;5074122;28;20025;-52
2022/02/26 04:15:30;;;;;;;8.65;3.42;;;;;;;6.44;52.52;99828.47;5092210;28;20107;-51
2022/02/26 04:17:55;;;;;;;11.02;4.30;;;;;;;6.54;52.46;99821.41;5074040;28;20032;-51
2022/02/26 04:20:21;;;;;;;8.88;3.60;;;;;;;6.55;52.50;99826.47;5092099;28;20016;-52
2022/02/26 04:22:47;;;;;;;14.00;3.35;;;;;;;6.53;52.48;99823.19;5092077;28;20027;-52
2022/02/26 04:25:13;;;;;;;14.45;3.53;;;;;;;6.66;52.60;99817.66;5092008;28;20054;-52
2022/02/26 04:27:39;;;;;;;12.77;3.90;;;;;;;6.66;52.28;99819.41;5073825;28;20027;-52
2022/02/26 04:30:07;;;;;;;16.52;4.38;;;;;;;6.78;52.06;99820.84;5073865;28;20050;-51
2022/02/26 04:32:33;;;;;;;8.35;3.72;;;;;;;7.03;51.67;99819.31;5073765;28;20040;-52
2022/02/26 04:34:58;;;;;;;12.13;3.33;;;;;;;7.07;51.45;99822.44;5056126;28;20075;-51
2022/02/26 04:37:24;;;;;;;12.15;4.25;;;;;;;7.22;51.59;99820.13;5071684;28;20024;-52
2022/02/26 04:39:50;;;;;;;13.35;4.97;;;;;;;7.22;50.48;99817.50;5053674;28;20021;-52
2022/02/26 04:42:17;;;;;;;13.77;3.53;;;;;;;6.82;51.14;99831.81;5053931;28;20112;-51
2022/02/26 04:44:44;;;;;;;13.13;3.80;;;;;;;6.56;52.21;99830.75;5071662;28;20028;-51
2022/02/26 04:47:12;;;;;;;10.02;4.38;;;;;;;6.55;51.74;99825.66;5071477;28;20448;-51
2022/02/26 04:49:38;;;;;;;12.57;3.97;;;;;;;6.55;52.29;99820.44;5053509;28;20024;-52
2022/02/26 04:52:05;;;;;;;9.32;3.97;;;;;;;6.54;52.60;99818.78;5071614;28;20485;-52
2022/02/26 04:54:30;;;;;;;14.32;4.07;;;;;;;6.62;52.02;99816.31;5071478;28;20029;-51
2022/02/26 04:56:56;;;;;;;13.52;3.63;;;;;;;6.60;52.27;99820.84;5071559;28;20036;-51
2022/02/26 04:59:22;;;;;;;10.52;3.60;;;;;;;6.52;52.39;99818.13;5071541;28;20103;-52
2022/02/26 05:01:47;;;;;;;14.07;4.05;;;;;;;6.38;52.61;99822.06;5071497;28;20016;-52
2022/02/26 05:04:13;;;;;;;14.43;4.30;;;;;;;6.24;53.18;99822.53;5073345;28;20070;-52
2022/02/26 05:06:39;;;;;;;14.48;4.00;;;;;;;6.20;53.40;99820.22;5075420;28;20052;-51
2022/02/26 05:09:04;;;;;;;11.82;4.20;;;;;;;6.08;53.17;99817.94;5075453;28;20023;-51
2022/02/26 05:11:30;;;;;;;16.73;6.07;;;;;;;5.95;53.74;99815.66;5057285;28;20024;-52
2022/02/26 05:13:56;;;;;;;10.55;4.97;;;;;;;5.80;53.88;99821.28;5075337;28;20226;-52
2022/02/26 05:16:22;;;;;;;13.13;3.92;;;;;;;5.60;54.15;99820.50;5057251;28;20504;-52
2022/02/26 05:18:47;;;;;;;12.60;4.65;;;;;;;5.49;54.86;99820.66;5075250;28;20021;-52
2022/02/26 05:21:13;;;;;;;10.77;3.85;;;;;;;5.42;55.16;99816.16;5075149;28;20046;-52
2022/02/26 05:23:42;;;;;;;12.00;4.55;;;;;;;5.32;54.63;99822.19;5057157;28;20587;-51
2022/02/26 05:26:12;;;;;;;9.95;3.95;;;;;;;5.27;55.68;99814.00;5075026;28;20025;-52
2022/02/26 05:28:38;;;;;;;11.90;4.60;;;;;;;5.25;55.61;99813.31;5057105;28;20039;-52
2022/02/26 05:31:04;;;;;;;11.25;3.58;;;;;;;5.19;55.69;99819.88;5074984;28;20103;-53
2022/02/26 05:33:31;;;;;;;13.43;4.22;;;;;;;5.06;56.27;99818.50;5056807;28;20127;-51
2022/02/26 05:35:57;;;;;;;14.18;3.80;;;;;;;5.11;56.01;99818.91;5056816;28;20119;-52
2022/02/26 05:38:22;;;;;;;12.45;3.78;;;;;;;5.12;55.64;99821.38;5056886;28;20111;-51
2022/02/26 05:40:48;;;;;;;13.90;4.40;;;;;;;5.16;56.49;99816.72;5074835;28;20074;-51
2022/02/26 05:43:14;;;;;;;12.63;4.35;;;;;;;5.22;55.78;99816.16;5074725;28;20504;-52
2022/02/26 05:45:40;;;;;;;12.85;3.95;;;;;;;5.11;55.89;99824.09;5074729;28;20020;-52
2022/02/26 05:48:06;;;;;;;11.70;4.65;;;;;;;5.00;56.42;99828.47;5074569;28;20027;-52
2022/02/26 05:50:33;;;;;;;15.23;6.10;;;;;;;4.96;56.24;99827.09;5074654;28;20516;-52
2022/02/26 05:52:58;;;;;;;19.98;4.75;;;;;;;4.91;56.89;99818.06;5074631;28;20066;-52
2022/02/26 05:55:24;;;;;;;19.50;5.15;;;;;;;4.83;56.77;99826.56;5074569;28;20020;-52
2022/02/26 05:57:50;;;;;;;10.88;4.32;;;;;;;4.78;57.05;99828.75;5074509;28;20024;-50
2022/02/26 06:00:16;;;;;;;10.30;4.63;;;;;;;4.79;57.34;99826.00;5056477;28;20051;-50
2022/02/26 06:02:42;;;;;;;13.32;5.05;;;;;;;4.81;56.74;99831.09;5074480;28;20028;-50
2022/02/26 06:05:08;;;;;;;12.65;4.40;;;;;;;4.78;57.25;99826.94;5074319;28;20024;-50
2022/02/26 06:07:34;;;;;;;18.35;4.82;;;;;;;4.93;56.91;99834.34;5074323;28;20027;-50
2022/02/26 06:10:00;;;;;;;15.25;4.35;;;;;;;5.14;57.33;99839.44;5056225;28;20021;-50
2022/02/26 06:12:27;;;;;;;14.35;3.88;;;;;;;5.25;56.51;99841.09;5074223;28;20051;-50
2022/02/26 06:14:52;;;;;;;13.40;5.20;;;;;;;5.23;57.00;99837.81;5055537;28;20703;-50
2022/02/26 06:17:18;;;;;;;9.45;3.58;;;;;;;5.19;56.41;99839.84;5073864;28;20036;-50
2022/02/26 06:19:44;;;;;;;14.10;3.80;;;;;;;5.16;56.78;99838.34;5074359;28;20031;-50
2022/02/26 06:22:10;;;;;;;11.90;3.90;;;;;;;5.17;56.92;99839.16;5056042;28;20035;-50
2022/02/26 06:24:35;;;;;;;12.93;3.63;;;;;;;5.24;56.65;99848.09;5074069;28;20027;-49
2022/02/26 06:27:01;;;;;;;9.43;4.45;;;;;;;5.30;56.30;99851.94;5055874;28;20032;-50
2022/02/26 06:29:27;;;;;;;11.65;4.13;;;;;;;5.27;56.54;99860.00;5055946;28;20060;-51
2022/02/26 06:31:53;;;;;;;12.48;4.20;;;;;;;5.32;56.24;99858.63;5073883;28;20554;-50
2022/02/26 06:34:20;;;;;;;14.10;4.85;;;;;;;5.31;56.23;99857.00;5055659;28;20067;-50
2022/02/26 06:36:46;;;;;;;10.27;4.07;;;;;;;5.30;56.38;99851.94;5073819;28;20029;-50
2022/02/26 06:39:12;;;;;;;14.13;4.55;;;;;;;5.21;56.77;99863.94;5055722;28;20021;-50
2022/02/26 06:41:38;;;;;;;13.60;3.85;;;;;;;5.20;56.74;99857.94;5055654;28;20032;-51
2022/02/26 06:44:04;;;;;;;13.30;5.63;;;;;;;5.16;56.97;99859.16;5055641;28;20024;-49
2022/02/26 06:46:30;;;;;;;13.20;4.40;;;;;;;5.14;56.53;99855.88;5055618;28;20028;-49
2022/02/26 06:48:56;;;;;;;13.90;3.70;;;;;;;5.22;57.44;99863.00;5073523;28;20051;-50
2022/02/26 06:51:22;;;;;;;13.90;4.35;;;;;;;5.39;56.75;99861.50;5073502;28;20108;-50
2022/02/26 06:53:47;;;;;;;17.98;4.28;;;;;;;5.54;56.89;99862.72;5073382;28;20059;-50
2022/02/26 06:56:13;;;;;;;8.25;3.80;;;;;;;5.74;56.42;99867.91;5073247;28;20385;-50
2022/02/26 06:58:39;;;;;;;11.93;3.97;;;;;;;5.86;55.71;99868.59;5073652;28;20024;-49
2022/02/26 07:01:05;;;;;;;12.23;4.95;;;;;;;5.98;55.89;99859.66;5055248;28;20025;-50
2022/02/26 07:03:30;;;;;;;11.00;3.63;;;;;;;6.03;55.01;99865.25;5055299;28;20116;-50
2022/02/26 07:05:56;;;;;;;9.48;3.42;;;;;;;6.11;54.79;99867.97;5073078;28;20082;-50
2022/02/26 07:08:22;;;;;;;9.15;4.25;;;;;;;6.34;55.22;99867.66;5073111;28;20025;-51
2022/02/26 07:10:48;;;;;;;11.68;4.65;;;;;;;6.91;54.67;99868.28;5073068;28;20048;-50
2022/02/26 07:13:14;;;;;;;11.25;4.57;;;;;;;8.00;52.27;99870.63;5073052;28;20024;-50
2022/02/26 07:15:39;;;;;;;12.75;4.95;;;;;;;8.80;50.44;99873.00;5073168;28;20025;-51
2022/02/26 07:18:09;;;;;;;8.80;4.25;;;;;;;9.22;49.17;99870.47;5072969;28;20047;-50
2022/02/26 07:20:35;;;;;;;7.78;3.13;;;;;;;9.35;48.14;99882.09;5073195;28;20393;-50
2022/02/26 07:23:01;;;;;;;13.90;3.50;;;;;;;9.26;48.06;99880.47;5054898;28;20028;-50
2022/02/26 07:25:26;;;;;;;7.13;3.20;;;;;;;8.91;48.26;99884.13;5054829;28;20033;-50
2022/02/26 07:27:52;;;;;;;9.50;3.97;;;;;;;8.55;49.18;99885.19;5072467;28;20103;-50
2022/02/26 07:30:18;;;;;;;13.25;3.67;;;;;;;8.14;49.46;99887.56;5072655;28;20024;-49
2022/02/26 07:32:44;;;;;;;16.30;5.25;;;;;;;7.89;49.99;99889.22;5054745;28;20036;-50
2022/02/26 07:35:09;;;;;;;12.02;3.75;;;;;;;7.66;50.53;99895.88;5054338;28;20049;-50
2022/02/26 07:37:35;;;;;;;8.18;3.67;;;;;;;7.50;51.24;99894.78;5054635;28;20029;-49
2022/02/26 07:40:01;;;;;;;10.48;3.53;;;;;;;7.36;51.35;99895.31;5054682;28;20025;-50
2022/02/26 07:42:26;;;;;;;7.35;3.63;;;;;;;7.33;51.22;99900.84;5072489;28;20035;-50
2022/02/26 07:44:53;;;;;;;12.18;4.45;;;;;;;7.49;51.79;99900.16;5054504;28;20029;-50
2022/02/26 07:47:18;;;;;;;10.00;3.58;;;;;;;7.82;51.00;99895.19;5072306;28;20426;-49
2022/02/26 07:49:44;;;;;;;21.55;11.98;;;;;;;7.97;50.70;99893.69;5054476;28;20029;-50
2022/02/26 07:52:10;;;;;;;9.77;4.78;;;;;;;7.95;49.99;99893.00;5072301;28;20521;-50
2022/02/26 07:54:36;;;;;;;21.50;10.90;;;;;;;8.14;50.29;99887.56;5054312;28;20481;-49
2022/02/26 07:57:01;;;;;;;13.13;4.40;;;;;;;8.49;49.36;99877.97;5072247;28;20021;-50
2022/02/26 07:59:27;;;;;;;11.50;3.90;;;;;;;9.00;48.79;99875.34;5072180;28;20036;-50
2022/02/26 08:01:56;;;;;;;13.43;4.43;;;;;;;9.55;47.60;99881.78;5072138;28;20397;-50
2022/02/26 08:04:22;;;;;;;13.65;4.68;;;;;;;9.72;46.75;99874.75;5072181;28;20105;-50
2022/02/26 08:06:47;;;;;;;9.90;4.22;;;;;;;9.86;46.17;99879.31;5054086;28;20052;-50
2022/02/26 08:09:13;;;;;;;13.98;4.20;;;;;;;10.57;45.23;99882.09;5072058;28;20027;-51
2022/02/26 08:11:40;;;;;;;9.82;3.20;;;;;;;11.33;43.81;99872.63;5072059;28;20142;-51
2022/02/26 08:14:07;;;;;;;7.72;3.10;;;;;;;11.69;42.22;99866.75;5072003;28;20020;-50
2022/02/26 08:16:33;;;;;;;8.65;3.60;;;;;;;11.95;42.03;99865.53;5071923;28;20575;-51
2022/02/26 08:18:58;;;;;;;11.02;4.28;;;;;;;12.98;40.32;99869.06;5053959;28;20052;-50
2022/02/26 08:21:25;;;;;;;11.52;3.25;;;;;;;14.17;38.53;99866.59;5071948;28;20024;-50
2022/02/26 08:23:51;;;;;;;8.52;3.80;;;;;;;15.05;36.73;99867.78;5071846;28;20486;-51
2022/02/26 08:26:18;;;;;;;9.55;3.50;;;;;;;16.07;35.61;99863.94;5071797;28;20034;-51
2022/02/26 08:28:43;;;;;;;12.77;4.50;;;;;;;16.64;33.46;99858.91;5071845;28;20078;-51
2022/02/26 08:31:09;;;;;;;14.18;7.22;;;;;;;16.60;32.85;99865.63;5053770;28;20024;-51
2022/02/26 08:33:35;;;;;;;12.20;7.40;;;;;;;16.82;33.05;99852.09;5077507;28;20032;-52
2022/02/26 08:36:00;;;;;;;10.00;5.45;;;;;;;17.55;31.49;99848.94;5091947;28;20089;-52
2022/02/26 08:38:26;;;;;;;8.50;3.45;;;;;;;18.32;30.73;99852.06;5073281;28;20036;-52
2022/02/26 08:40:52;;;;;;;13.13;4.50;;;;;;;18.68;30.09;99855.72;5091896;28;20038;-52
2022/02/26 08:43:17;;;;;;;8.45;3.50;;;;;;;19.15;29.52;99849.78;5091855;28;20024;-52
2022/02/26 08:45:43;;;;;;;9.80;3.47;;;;;;;19.48;28.66;99851.13;5073659;28;20028;-52
2022/02/26 08:48:09;;;;;;;8.13;3.20;;;;;;;19.92;28.30;99851.63;5073590;28;20114;-52
2022/02/26 08:50:36;;;;;;;8.75;3.35;;;;;;;20.43;27.04;99846.56;5073612;28;20122;-49
2022/02/26 08:53:02;;;;;;;11.95;2.70;;;;;;;20.47;26.76;99850.38;5091821;28;20048;-48
2022/02/26 08:55:27;;;;;;;7.63;2.92;;;;;;;20.03;26.63;99844.66;5073638;28;20064;-50
2022/02/26 08:57:53;;;;;;;6.97;2.95;;;;;;;19.83;26.66;99837.84;5091804;28;20024;-50
2022/02/26 09:00:19;;;;;;;5.47;3.00;;;;;;;19.95;26.21;99843.97;5091778;28;20038;-49
2022/02/26 09:02:45;;;;;;;8.50;3.20;;;;;;;20.15;25.96;99856.94;5091749;28;20107;-49
2022/02/26 09:05:12;;;;;;;6.28;3.13;;;;;;;20.17;25.94;99854.03;5073513;28;20032;-49
2022/02/26 09:07:38;;;;;;;10.00;3.40;;;;;;;20.33;25.82;99845.31;5091580;28;20486;-50
2022/02/26 09:10:05;;;;;;;6.18;2.85;;;;;;;20.70;25.79;99842.31;5073670;28;20043;-49
2022/02/26 09:12:31;;;;;;;9.20;3.00;;;;;;;20.81;25.09;99843.31;5091636;28;20027;-49
2022/02/26 09:14:57;;;;;;;10.60;3.13;;;;;;;20.45;25.28;99852.47;5091570;28;20028;-49
2022/02/26 09:17:24;;;;;;;7.35;2.80;;;;;;;20.12;25.32;99844.09;5073461;28;20498;-49
2022/02/26 09:19:51;;;;;;;9.95;3.08;;;;;;;20.56;25.14;99848.94;5091490;28;20554;-49
2022/02/26 09:22:18;;;;;;;6.50;3.10;;;;;;;20.98;24.85;99851.34;5073319;28;20054;-49
2022/02/26 09:24:44;;;;;;;9.18;3.70;;;;;;;21.38;24.57;99846.94;5091752;28;20035;-49
2022/02/26 09:27:10;;;;;;;9.45;3.17;;;;;;;21.53;23.98;99847.19;5091379;28;20017;-50
2022/02/26 09:29:35;;;;;;;8.65;3.40;;;;;;;21.82;23.68;99845.22;5091459;28;20024;-49
2022/02/26 09:32:01;;;;;;;7.50;2.90;;;;;;;22.29;22.84;99835.97;5091628;28;20031;-50
2022/02/26 09:34:29;;;;;;;6.97;3.38;;;;;;;22.69;22.74;99843.66;5072998;28;20040;-48
2022/02/26 09:36:55;;;;;;;6.25;3.47;;;;;;;23.04;22.20;99846.94;5091330;28;20028;-49
2022/02/26 09:39:21;;;;;;;7.75;3.60;;;;;;;23.38;21.66;99847.53;5091380;28;20498;-49
2022/02/26 09:41:50;;;;;;;7.38;4.15;;;;;;;23.65;21.32;99842.09;5073065;28;20497;-49
2022/02/26 09:44:17;;;;;;;7.53;3.20;;;;;;;23.98;21.10;99842.03;5091328;28;20031;-49
2022/02/26 09:46:44;;;;;;;7.32;3.45;;;;;;;24.30;20.44;99840.03;5091217;28;20021;-48
2022/02/26 09:49:10;;;;;;;9.55;3.33;;;;;;;24.43;20.41;99837.94;5091324;28;20020;-50
2022/02/26 09:51:40;;;;;;;7.78;3.22;;;;;;;24.19;20.50;99854.47;5093604;28;20034;-50
2022/02/26 09:54:06;;;;;;;6.20;3.10;;;;;;;24.38;20.04;99844.06;5095036;28;20062;-50
2022/02/26 09:56:32;;;;;;;11.27;4.47;;;;;;;24.67;19.66;99840.97;5094813;28;20162;-49
2022/02/26 09:58:58;;;;;;;10.70;3.40;;;;;;;24.99;19.63;99848.00;5094774;28;20528;-50
2022/02/26 10:01:23;;;;;;;9.68;2.88;;;;;;;24.97;19.58;99836.72;5095017;28;20032;-49
2022/02/26 10:03:49;;;;;;;9.95;3.30;;;;;;;25.13;19.49;99838.34;5076503;28;20024;-49
2022/02/26 10:06:18;;;;;;;10.13;3.35;;;;;;;24.96;19.31;99837.81;5076468;28;20028;-49
2022/02/26 10:08:45;;;;;;;9.85;3.47;;;;;;;24.55;20.03;99833.19;5094535;28;20028;-50
2022/02/26 10:11:27;;;;;;;6.75;3.05;;;;;;;24.64;20.00;99839.63;5094525;28;20039;-48
2022/02/26 10:14:04;;;;;;;6.93;2.80;;;;;;;24.90;19.72;99843.16;5076427;28;20034;-49
2022/02/26 10:17:00;;;;;;;6.65;2.60;;;;;;;24.65;19.89;99835.06;5094501;28;20114;-49
2022/02/26 10:19:35;;;;;;;6.13;3.17;;;;;;;24.04;19.50;99836.41;5094433;28;20051;-49
2022/02/26 10:22:08;;;;;;;7.57;2.72;;;;;;;23.04;20.89;99828.22;5094288;28;20031;-50
2022/02/26 10:24:37;;;;;;;5.60;2.47;;;;;;;23.36;20.75;99830.09;5094364;28;20523;-50
2022/02/26 10:27:08;;;;;;;6.28;2.67;;;;;;;23.66;20.63;99827.63;5094174;28;20481;-48
2022/02/26 10:29:39;;;;;;;9.15;3.40;;;;;;;23.80;20.42;99832.53;5094298;28;20111;-50
2022/02/26 10:32:07;;;;;;;5.95;3.25;;;;;;;23.64;20.32;99831.63;5094228;28;20024;-49
2022/02/26 10:34:35;;;;;;;6.75;2.60;;;;;;;23.24;20.70;99833.75;5093905;28;20036;-49
2022/02/26 10:37:11;;;;;;;6.30;2.70;;;;;;;23.19;20.61;99833.72;5094023;28;20024;-49
2022/02/26 10:39:40;;;;;;;8.45;2.80;;;;;;;22.72;21.32;99828.97;5094047;28;20040;-49
2022/02/26 10:42:18;;;;;;;5.55;2.83;;;;;;;23.04;21.42;99825.53;5075728;28;20132;-50
2022/02/26 10:44:45;;;;;;;5.55;3.25;;;;;;;23.48;20.48;99830.69;5093888;28;20035;-49
2022/02/26 10:47:13;;;;;;;4.43;2.55;;;;;;;23.65;20.10;99823.31;5093753;28;20028;-49
2022/02/26 10:49:44;;;;;;;6.60;2.47;;;;;;;23.91;20.00;99821.63;5075658;28;20054;-49
2022/02/26 10:52:12;;;;;;;8.45;3.38;;;;;;;24.06;19.69;99823.56;5093746;28;20012;-49
2022/02/26 10:54:39;;;;;;;6.68;2.97;;;;;;;24.36;19.41;99818.59;5093656;28;20028;-50
2022/02/26 10:57:07;;;;;;;9.93;3.05;;;;;;;24.71;19.21;99815.22;5093624;28;20398;-49
2022/02/26 10:59:35;;;;;;;8.25;4.80;;;;;;;24.94;19.02;99805.03;5093676;28;20020;-49
2022/02/26 11:02:05;;;;;;;7.18;2.92;;;;;;;25.15;18.83;99806.63;5074864;28;20115;-50
2022/02/26 11:04:33;;;;;;;5.53;2.30;;;;;;;25.41;18.57;99806.66;5075331;28;20024;-50
2022/02/26 11:06:59;;;;;;;5.38;3.00;;;;;;;25.60;18.44;99806.91;5075167;28;20095;-49
2022/02/26 11:09:25;;;;;;;10.93;3.20;;;;;;;25.25;18.40;99804.00;5075224;28;20024;-48
2022/02/26 11:11:52;;;;;;;6.75;2.72;;;;;;;24.84;18.40;99801.28;5075041;28;20038;-50
2022/02/26 11:14:22;;;;;;;6.10;2.63;;;;;;;24.76;18.71;99796.44;5075043;28;20119;-49
2022/02/26 11:16:53;;;;;;;7.10;2.95;;;;;;;25.08;18.56;99792.69;5075069;28;20039;-49
2022/02/26 11:19:20;;;;;;;6.72;2.55;;;;;;;25.45;18.32;99791.59;5093211;28;20013;-50
2022/02/26 11:21:50;;;;;;;13.73;3.67;;;;;;;24.81;18.81;99785.72;5074862;28;20035;-51
2022/02/26 11:24:17;;;;;;;6.65;2.58;;;;;;;24.70;18.53;99789.44;5074918;28;20028;-49
2022/02/26 11:26:45;;;;;;;8.48;2.80;;;;;;;24.64;18.54;99785.94;5092868;28;20031;-49
2022/02/26 11:29:12;;;;;;;5.80;2.60;;;;;;;24.88;18.62;99778.19;5093003;28;20569;-49
2022/02/26 11:31:51;;;;;;;4.88;2.20;;;;;;;24.59;18.15;99780.56;5074742;28;20434;-50